Time;durP1;ratioP1;P1;durP2;ratioP2;P2;SDS_P1;SDS_P2;PMS_P1;PMS_P2;Temp;Humidity;BMP_temperature;BMP_pressure;BME280_temperature;BME280_humidity;BME280_pressure;Samples;Min_cycle;Max_cycle;Signal;HPM_P1;HPM_P2
2022/05/05 00:01:12;;;;;;;20.47;18.67;;;11.70;99.90;;;10.53;100.00;98044.19;5088973;28;20457;-70
2022/05/05 00:03:39;;;;;;;19.03;17.30;;;11.60;99.90;;;10.44;100.00;98028.25;5083659;28;20448;-70
2022/05/05 00:06:08;;;;;;;20.23;18.30;;;11.60;99.90;;;10.56;100.00;98041.09;5077801;28;20496;-70
2022/05/05 00:08:35;;;;;;;20.10;18.00;;;11.70;99.90;;;10.47;99.53;98044.00;5081527;28;20456;-71
2022/05/05 00:16:33;;;;;;;19.37;16.20;;;11.50;99.90;;;10.30;100.00;98057.13;5081348;28;20950;-71
2022/05/05 00:19:01;;;;;;;17.73;16.03;;;11.50;99.90;;;10.35;100.00;98046.53;5085301;28;20462;-73
2022/05/05 00:21:29;;;;;;;18.33;16.50;;;11.50;99.90;;;10.53;99.43;98049.59;5085533;28;20480;-72
2022/05/05 00:23:56;;;;;;;18.90;17.00;;;11.60;99.90;;;10.54;98.93;98046.69;5088860;28;20624;-71
2022/05/05 00:26:23;;;;;;;18.47;16.77;;;11.60;99.90;;;10.51;99.11;98052.53;5084156;28;20510;-71
2022/05/05 00:28:50;;;;;;;18.87;17.07;;;11.60;99.90;;;10.38;98.71;98056.06;5088571;28;20562;-72
2022/05/05 00:31:17;;;;;;;18.33;16.60;;;11.60;99.90;;;10.37;99.25;98051.69;5085200;28;20526;-73
2022/05/05 00:33:46;;;;;;;18.43;16.30;;;11.50;99.90;;;10.35;100.00;98053.78;5078723;28;20512;-71
2022/05/05 00:36:13;;;;;;;19.30;17.60;;;11.50;99.90;;;10.21;100.00;98053.81;5076811;28;20459;-73
2022/05/05 00:38:40;;;;;;;18.17;16.47;;;11.40;99.90;;;10.17;100.00;98051.78;5090289;28;20449;-70
2022/05/05 00:41:08;;;;;;;17.73;16.10;;;11.40;99.90;;;10.19;100.00;98050.50;5083000;28;20546;-70
2022/05/05 00:43:36;;;;;;;18.57;16.77;;;11.40;99.90;;;10.20;100.00;98054.88;5085746;28;20550;-72
2022/05/05 00:46:04;;;;;;;18.90;17.00;;;11.40;99.90;;;10.23;100.00;98055.47;5079235;28;20551;-73
2022/05/05 00:48:31;;;;;;;18.70;17.00;;;11.40;99.90;;;10.07;100.00;98047.66;5082836;28;20543;-71
2022/05/05 00:51:00;;;;;;;18.17;16.53;;;11.30;99.90;;;10.06;99.73;98056.78;5082687;28;20954;-71
2022/05/05 00:53:27;;;;;;;17.17;15.57;;;11.20;99.90;;;10.01;99.55;98047.66;5083400;28;20493;-72
2022/05/05 00:55:57;;;;;;;17.67;16.07;;;11.20;99.90;;;9.57;100.00;98002.28;5083247;28;20528;-71
2022/05/05 00:58:26;;;;;;;18.30;16.53;;;11.10;99.90;;;9.75;100.00;98042.09;5086157;28;20537;-71
2022/05/05 01:00:54;;;;;;;17.27;15.70;;;11.00;99.90;;;9.68;100.00;98041.25;5086281;28;20444;-71
2022/05/05 01:03:23;;;;;;;16.63;15.03;;;10.90;99.90;;;9.71;100.00;98051.66;5081093;28;20460;-72
2022/05/05 01:05:50;;;;;;;17.80;16.17;;;10.80;99.90;;;9.68;100.00;98052.06;5061507;28;20551;-72
2022/05/05 01:08:18;;;;;;;18.47;16.70;;;10.80;99.90;;;9.58;100.00;98049.78;5080391;28;20540;-72
2022/05/05 01:10:46;;;;;;;18.90;17.17;;;10.80;99.90;;;9.58;100.00;98060.56;5084345;28;20456;-70
2022/05/05 01:13:13;;;;;;;18.30;16.57;;;10.70;99.90;;;9.57;100.00;98048.13;5086951;28;20514;-73
2022/05/05 01:15:41;;;;;;;18.13;16.33;;;10.80;99.90;;;9.63;100.00;98060.81;5078490;28;20487;-71
2022/05/05 01:18:08;;;;;;;17.77;16.20;;;10.80;99.90;;;9.64;100.00;98053.53;5082653;28;20462;-71
2022/05/05 01:20:45;;;;;;;19.13;16.80;;;10.80;99.90;;;9.71;100.00;98056.22;5082888;28;20546;-72
2022/05/05 01:23:15;;;;;;;17.43;15.70;;;10.80;99.90;;;9.80;100.00;98062.22;5081381;28;20457;-74
2022/05/05 01:28:31;;;;;;;18.00;16.17;;;10.90;99.90;;;9.74;100.00;98055.78;5084342;28;20465;-71
2022/05/05 01:30:59;;;;;;;18.73;17.00;;;11.00;99.90;;;9.87;100.00;98069.28;5085039;28;20455;-71
2022/05/05 01:33:28;;;;;;;18.80;17.00;;;11.00;99.90;;;9.80;100.00;98076.56;5084003;28;20450;-70
2022/05/05 01:35:57;;;;;;;17.73;16.03;;;11.00;99.90;;;9.72;100.00;98077.59;5084610;28;20443;-71
2022/05/05 01:38:36;;;;;;;18.90;17.00;;;10.90;99.90;;;9.84;100.00;98080.50;5084698;28;20541;-70
2022/05/05 01:41:05;;;;;;;20.20;18.20;;;10.90;99.90;;;9.76;100.00;98057.25;5073574;28;20964;-71
2022/05/05 01:43:33;;;;;;;21.77;19.50;;;11.00;99.90;;;10.15;100.00;98086.25;5084772;28;20456;-71
2022/05/05 01:46:00;;;;;;;22.10;19.83;;;11.20;99.90;;;10.09;100.00;98084.41;5079685;28;20826;-70
2022/05/05 01:48:28;;;;;;;23.07;20.97;;;11.20;99.90;;;9.94;100.00;98058.47;5081493;28;20531;-71
2022/05/05 01:50:55;;;;;;;22.30;20.20;;;11.30;99.90;;;10.18;100.00;98091.25;5083926;28;20547;-71
2022/05/05 01:53:24;;;;;;;21.10;19.20;;;11.30;99.90;;;10.34;100.00;98090.78;5083480;28;20804;-71
2022/05/05 01:55:52;;;;;;;22.20;20.07;;;11.40;99.90;;;10.18;100.00;98086.66;5081912;28;20452;-71
2022/05/05 01:58:19;;;;;;;21.17;19.07;;;11.40;99.90;;;10.31;100.00;98080.41;5082188;28;20542;-72
2022/05/05 02:00:46;;;;;;;21.73;19.60;;;11.50;99.90;;;10.26;100.00;98084.78;5083230;28;20471;-71
2022/05/05 02:03:13;;;;;;;24.67;22.00;;;11.50;99.90;;;10.23;100.00;98093.28;5082450;28;20539;-70
2022/05/05 02:05:42;;;;;;;24.67;22.30;;;11.40;99.90;;;10.42;100.00;98084.34;5080074;28;20483;-70
2022/05/05 02:08:09;;;;;;;26.27;23.67;;;11.60;99.90;;;10.41;99.05;98090.78;5093196;27;20988;-70
2022/05/05 02:10:38;;;;;;;28.90;25.83;;;11.60;99.90;;;10.27;99.97;98094.53;5097495;28;20440;-71
2022/05/05 02:13:07;;;;;;;27.83;25.03;;;11.50;99.90;;;10.23;100.00;98087.88;5079974;28;20445;-73
2022/05/05 02:15:34;;;;;;;28.97;26.00;;;11.40;99.90;;;10.25;100.00;98077.72;5081409;28;20996;-72
2022/05/05 02:18:09;;;;;;;22.73;20.53;;;11.50;99.90;;;10.21;100.00;98094.31;5082400;28;22361;-72
2022/05/05 02:20:38;;;;;;;22.70;20.57;;;11.40;99.90;;;10.21;100.00;98094.31;5084622;28;20456;-72
2022/05/05 02:23:05;;;;;;;21.03;19.10;;;11.30;99.90;;;10.21;99.44;98080.81;5078238;28;20468;-73
2022/05/05 02:25:33;;;;;;;20.93;19.03;;;11.40;99.90;;;10.27;99.19;98089.16;5077217;28;20566;-71
2022/05/05 02:28:02;;;;;;;21.60;19.43;;;11.40;99.90;;;10.09;99.94;98090.63;5082906;28;20814;-71
2022/05/05 02:30:30;;;;;;;20.23;18.40;;;11.30;99.90;;;10.16;100.00;98094.13;5079503;28;20962;-72
2022/05/05 02:32:57;;;;;;;20.73;18.80;;;11.30;99.90;;;10.03;100.00;98083.38;5081183;28;20444;-72
2022/05/05 02:35:25;;;;;;;19.37;17.53;;;11.20;99.90;;;9.99;99.68;98066.75;5094805;28;20506;-71
2022/05/05 02:40:38;;;;;;;21.47;19.37;;;11.30;99.90;;;9.89;100.00;98094.19;5074569;28;20456;-71
2022/05/05 02:43:08;;;;;;;22.07;19.93;;;11.20;99.90;;;9.86;100.00;98101.88;5077099;28;20459;-71
2022/05/05 02:45:35;;;;;;;20.77;18.67;;;11.00;99.90;;;9.89;100.00;98101.47;5075221;28;20493;-72
2022/05/05 02:48:04;;;;;;;20.37;18.50;;;11.00;99.90;;;9.95;100.00;98091.69;5084070;28;20458;-72
2022/05/05 02:50:32;;;;;;;18.73;17.07;;;11.10;99.90;;;9.90;100.00;98101.22;5079013;28;20447;-70
2022/05/05 02:52:59;;;;;;;21.50;19.57;;;11.00;99.90;;;9.92;100.00;98092.94;5086088;28;20990;-72
2022/05/05 02:55:26;;;;;;;21.97;19.67;;;11.10;99.90;;;9.95;100.00;98091.69;5082957;28;20456;-72
2022/05/05 02:57:53;;;;;;;21.33;19.27;;;11.10;99.90;;;10.07;100.00;98096.25;5088164;28;21180;-71
2022/05/05 03:00:22;;;;;;;20.97;19.07;;;11.20;99.90;;;9.92;100.00;98099.16;5083421;28;20547;-72
2022/05/05 03:02:50;;;;;;;22.13;19.93;;;11.10;99.90;;;9.92;100.00;98093.75;5079614;28;20482;-71
2022/05/05 03:05:17;;;;;;;20.97;18.93;;;11.00;99.90;;;9.85;100.00;98098.34;5077130;28;20483;-71
2022/05/05 03:07:44;;;;;;;20.13;18.30;;;11.00;99.90;;;10.03;100.00;98095.00;5081161;28;20537;-71
2022/05/05 03:10:13;;;;;;;21.67;19.50;;;11.10;99.90;;;9.97;100.00;98095.00;5082720;28;20517;-73
2022/05/05 03:12:40;;;;;;;20.73;18.60;;;11.10;99.90;;;10.03;100.00;98091.47;5084712;28;20502;-71
2022/05/05 03:15:09;;;;;;;19.13;17.33;;;11.20;99.90;;;10.13;100.00;98094.56;5081220;28;20546;-71
2022/05/05 03:17:37;;;;;;;18.70;17.00;;;11.20;99.90;;;10.17;99.58;98095.81;5080813;28;20984;-70
2022/05/05 03:20:07;;;;;;;19.37;17.47;;;11.30;99.90;;;10.02;100.00;98093.34;5085027;28;20444;-73
2022/05/05 03:22:34;;;;;;;19.20;17.30;;;11.20;99.90;;;10.00;100.00;98095.41;5081485;28;20504;-71
2022/05/05 03:25:01;;;;;;;19.00;17.20;;;11.10;99.90;;;10.04;100.00;98093.13;5081674;28;20448;-71
2022/05/05 03:27:28;;;;;;;18.57;16.77;;;11.20;99.90;;;9.84;100.00;98080.50;5078690;28;20500;-70
2022/05/05 03:29:55;;;;;;;17.80;16.20;;;11.10;99.90;;;9.91;100.00;98084.00;5085266;28;20478;-71
2022/05/05 03:32:22;;;;;;;16.90;15.30;;;11.10;99.90;;;9.99;100.00;98088.34;5074846;28;20958;-71
2022/05/05 03:34:51;;;;;;;16.20;14.80;;;11.20;99.90;;;9.90;100.00;98092.31;5087863;28;20459;-71
2022/05/05 03:37:18;;;;;;;18.20;16.30;;;11.10;99.90;;;9.96;100.00;98087.97;5084050;28;20479;-72
2022/05/05 03:39:45;;;;;;;16.07;14.53;;;11.10;99.90;;;9.88;100.00;98095.22;5086523;28;21030;-73
2022/05/05 03:42:12;;;;;;;17.80;16.20;;;11.10;99.90;;;9.76;100.00;98094.19;5084917;28;20527;-73
2022/05/05 03:44:39;;;;;;;16.93;15.33;;;11.00;99.90;;;9.84;100.00;98095.84;5082895;28;20455;-72
2022/05/05 03:47:07;;;;;;;17.40;15.73;;;11.00;99.90;;;9.88;100.00;98097.91;5085249;28;20495;-73
2022/05/05 03:49:34;;;;;;;17.90;16.20;;;11.10;99.90;;;9.90;100.00;98084.22;5083951;28;20456;-71
2022/05/05 03:52:03;;;;;;;17.93;16.23;;;11.10;99.90;;;9.93;100.00;98094.59;5083427;28;20452;-71
2022/05/05 03:54:30;;;;;;;20.47;17.33;;;11.10;99.90;;;9.86;100.00;98091.91;5102650;28;20452;-71
2022/05/05 03:56:57;;;;;;;16.63;15.00;;;11.10;99.90;;;9.77;100.00;98094.00;5089035;28;20443;-69
2022/05/05 03:59:24;;;;;;;18.07;16.27;;;11.10;99.90;;;9.71;100.00;98102.06;5082916;28;21151;-70
2022/05/05 04:01:52;;;;;;;17.97;16.20;;;10.90;99.90;;;9.88;100.00;98111.41;5078743;28;20989;-71
2022/05/05 04:04:19;;;;;;;18.37;16.43;;;10.90;99.90;;;9.85;100.00;98105.59;5076697;28;20803;-70
2022/05/05 04:06:47;;;;;;;18.20;16.53;;;11.00;99.90;;;9.85;100.00;98103.72;5084179;28;20802;-71
2022/05/05 04:09:15;;;;;;;19.23;17.57;;;11.00;99.90;;;10.12;99.54;98109.09;5099220;28;20844;-72
2022/05/05 04:11:43;;;;;;;19.70;17.80;;;11.20;99.90;;;10.01;99.66;98107.88;5087262;28;20474;-70
2022/05/05 04:14:10;;;;;;;20.00;18.17;;;11.20;99.90;;;9.92;100.00;98109.94;5089031;28;20448;-71
2022/05/05 04:16:37;;;;;;;19.37;17.27;;;11.10;99.90;;;10.05;100.00;98108.28;5086321;28;20469;-71
2022/05/05 04:19:04;;;;;;;19.67;17.87;;;11.20;99.90;;;10.05;100.00;98113.69;5079629;28;20448;-70
2022/05/05 04:21:32;;;;;;;19.20;17.23;;;11.20;99.90;;;10.10;99.99;98116.59;5085426;28;20447;-72
2022/05/05 04:23:59;;;;;;;19.07;17.07;;;11.30;99.90;;;10.05;100.00;98124.47;5086143;28;20448;-71
2022/05/05 04:26:29;;;;;;;20.13;17.70;;;11.30;99.90;;;10.16;99.73;98117.59;5084698;28;20471;-70
2022/05/05 04:28:57;;;;;;;19.30;17.33;;;11.30;99.90;;;10.24;99.67;98128.19;5087815;28;20526;-70
2022/05/05 04:31:29;;;;;;;19.57;16.47;;;11.30;99.90;;;10.14;100.00;98116.97;5088099;28;20456;-71
2022/05/05 04:33:59;;;;;;;18.57;16.87;;;11.40;99.90;;;10.25;99.83;98129.03;5086640;28;20471;-70
2022/05/05 04:36:26;;;;;;;17.27;15.77;;;11.40;99.90;;;10.27;98.19;98121.53;5081086;28;20535;-70
2022/05/05 04:38:54;;;;;;;18.97;17.17;;;11.50;99.90;;;10.43;98.40;98131.94;5080738;28;21025;-71
2022/05/05 04:41:21;;;;;;;17.93;16.23;;;11.50;99.90;;;10.60;97.42;98137.69;5095311;28;20485;-71
2022/05/05 04:43:49;;;;;;;18.67;16.97;;;11.70;99.90;;;10.49;97.16;98120.25;5094341;28;20538;-72
2022/05/05 04:46:16;;;;;;;18.70;16.70;;;11.80;99.90;;;10.72;96.35;98145.97;5090106;28;24380;-72
2022/05/05 04:48:43;;;;;;;19.40;17.60;;;11.90;99.90;;;10.70;95.94;98147.22;5092040;28;20520;-71
2022/05/05 04:51:10;;;;;;;20.93;17.23;;;11.80;99.90;;;10.77;95.36;98148.84;5086170;28;21018;-69
2022/05/05 04:53:37;;;;;;;19.53;17.73;;;11.90;99.90;;;10.71;96.38;98154.28;5081365;28;20530;-76
2022/05/05 04:56:05;;;;;;;18.73;16.87;;;11.90;99.90;;;10.66;96.47;98154.91;5080361;28;20463;-77
2022/05/05 04:58:33;;;;;;;20.03;18.20;;;11.90;99.90;;;10.61;97.10;98162.84;5087867;28;20445;-75
2022/05/05 05:01:02;;;;;;;19.30;17.50;;;11.80;99.90;;;10.83;96.72;98165.25;5082230;28;20455;-74
2022/05/05 05:03:39;;;;;;;19.67;17.70;;;12.00;99.90;;;11.24;94.70;98174.84;5084081;28;20513;-73
2022/05/05 05:06:09;;;;;;;20.50;18.60;;;12.20;99.90;;;11.28;92.95;98172.56;5079605;28;20796;-74
2022/05/05 05:08:36;;;;;;;19.40;17.77;;;12.30;99.90;;;11.25;92.96;98165.69;5101209;28;20459;-74
2022/05/05 05:11:04;;;;;;;18.77;17.00;;;12.40;99.90;;;10.86;95.56;98154.84;5077756;28;20930;-74
2022/05/05 05:13:32;;;;;;;16.17;14.77;;;12.30;99.90;;;11.12;94.19;98184.69;5079350;28;20460;-74
2022/05/05 05:15:59;;;;;;;18.57;16.87;;;12.30;99.90;;;11.30;94.19;98174.00;5078429;28;20490;-72
2022/05/05 05:18:27;;;;;;;18.70;16.77;;;12.40;99.90;;;11.40;92.30;98168.13;5078179;28;20534;-73
2022/05/05 05:20:55;;;;;;;16.80;15.30;;;12.50;99.90;;;11.73;90.87;98171.66;5079076;28;20568;-71
2022/05/05 05:23:22;;;;;;;16.90;15.43;;;12.70;99.80;;;12.00;88.75;98174.16;5077325;28;21010;-73
2022/05/05 05:25:49;;;;;;;18.50;16.90;;;12.90;97.00;;;11.71;89.13;98168.34;5074210;28;20631;-73
2022/05/05 05:28:16;;;;;;;19.10;17.30;;;12.90;96.10;;;11.68;90.20;98179.59;5080690;28;20470;-73
2022/05/05 05:30:43;;;;;;;20.07;17.10;;;12.80;96.70;;;11.54;90.57;98173.47;5073214;28;20544;-73
2022/05/05 05:33:11;;;;;;;17.50;15.70;;;12.80;96.50;;;11.89;89.54;98178.41;5074885;28;20453;-74
2022/05/05 05:35:41;;;;;;;18.60;16.90;;;12.90;97.30;;;12.12;88.41;98180.53;5079582;28;20543;-73
2022/05/05 05:38:08;;;;;;;18.83;17.17;;;13.00;96.30;;;12.19;87.68;98173.19;5076726;28;21039;-72
2022/05/05 05:40:35;;;;;;;19.63;17.73;;;13.10;95.60;;;12.19;87.20;98181.31;5101443;27;21251;-72
2022/05/05 05:43:02;;;;;;;19.50;17.70;;;13.20;94.50;;;12.26;86.89;98180.44;5080217;28;20484;-80
2022/05/05 05:45:30;;;;;;;18.93;17.23;;;13.30;94.60;;;12.24;86.14;98158.97;5084662;28;20471;-77
2022/05/05 05:47:57;;;;;;;27.20;24.07;;;13.40;94.20;;;12.19;86.95;98180.50;5081711;28;20564;-75
2022/05/05 05:50:27;;;;;;;21.17;19.27;;;13.40;93.90;;;12.15;87.72;98173.88;5081494;28;20959;-78
2022/05/05 05:52:55;;;;;;;25.03;22.73;;;13.30;94.50;;;12.24;87.91;98182.53;5079231;28;20519;-69
2022/05/05 05:55:22;;;;;;;29.47;26.43;;;13.30;94.90;;;12.20;87.46;98179.44;5074454;28;20556;-78
2022/05/05 05:57:50;;;;;;;27.33;24.53;;;13.40;94.30;;;12.23;87.63;98186.31;5079785;28;20481;-75
2022/05/05 06:00:18;;;;;;;31.07;27.93;;;13.40;94.70;;;12.31;87.51;98186.00;5078146;28;20461;-75
2022/05/05 06:05:31;;;;;;;31.60;28.27;;;13.50;94.30;;;12.30;87.54;98197.88;5080105;28;20465;-73
2022/05/05 06:08:00;;;;;;;32.80;29.30;;;13.50;94.30;;;12.40;87.42;98195.50;5080747;28;20467;-73
2022/05/05 06:10:28;;;;;;;31.17;27.87;;;13.50;94.40;;;12.64;86.49;98198.38;5085637;28;20453;-73
2022/05/05 06:12:56;;;;;;;31.60;26.67;;;13.60;94.20;;;12.93;84.71;98190.56;5086078;28;20461;-73
2022/05/05 06:15:24;;;;;;;31.17;28.00;;;13.80;93.50;;;13.03;83.21;98201.72;5073062;28;20566;-73
2022/05/05 06:17:52;;;;;;;31.90;28.40;;;13.90;92.30;;;13.04;83.49;98203.38;5088427;27;20456;-72
2022/05/05 06:20:19;;;;;;;31.10;28.10;;;14.00;92.20;;;12.78;83.77;98203.66;5075807;28;20625;-74
2022/05/05 06:22:47;;;;;;;31.80;28.60;;;13.90;91.70;;;12.59;85.14;98206.38;5077203;28;20621;-72
2022/05/05 06:25:15;;;;;;;31.30;28.10;;;13.80;92.40;;;12.68;85.25;98205.03;5081903;28;20448;-72
2022/05/05 06:27:42;;;;;;;30.33;27.07;;;13.80;93.00;;;12.64;84.46;98205.72;5075688;28;20468;-72
2022/05/05 06:30:13;;;;;;;32.07;28.50;;;13.70;92.30;;;12.73;84.67;98205.19;5079946;28;20459;-72
2022/05/05 06:32:40;;;;;;;31.37;28.03;;;13.70;92.90;;;12.63;84.93;98207.56;5074558;28;20446;-73
2022/05/05 06:35:09;;;;;;;30.20;26.93;;;13.70;92.80;;;12.73;84.30;98213.31;5073514;28;20962;-73
2022/05/05 06:37:36;;;;;;;32.00;28.70;;;13.80;92.60;;;12.54;84.74;98198.09;5079992;28;20494;-74
2022/05/05 06:40:05;;;;;;;30.40;27.30;;;13.70;92.60;;;12.60;84.30;98219.72;5081360;28;20481;-74
2022/05/05 06:42:33;;;;;;;30.77;27.67;;;13.70;92.30;;;12.54;84.93;98214.34;5071265;28;20467;-72
2022/05/05 06:45:01;;;;;;;31.80;28.47;;;13.60;92.80;;;12.61;85.08;98212.41;5076615;28;20780;-73
2022/05/05 06:47:29;;;;;;;30.37;27.17;;;13.70;93.10;;;12.63;85.12;98201.34;5093396;28;20983;-73
2022/05/05 06:49:56;;;;;;;31.50;28.20;;;13.70;92.70;;;13.03;84.22;98206.31;5079302;28;20465;-74
2022/05/05 06:52:23;;;;;;;33.77;30.27;;;13.90;92.80;;;13.18;83.78;98222.22;5070143;28;20528;-73
2022/05/05 06:54:50;;;;;;;31.97;28.83;;;14.10;92.50;;;13.22;82.16;98215.25;5078629;28;20450;-73
2022/05/05 06:57:17;;;;;;;31.83;28.43;;;14.30;91.00;;;13.44;80.57;98203.97;5075045;28;20848;-74
2022/05/05 06:59:46;;;;;;;33.33;29.97;;;14.40;90.40;;;13.38;81.16;98212.97;5093845;28;20523;-73
2022/05/05 07:02:13;;;;;;;33.87;30.20;;;14.40;90.20;;;13.52;80.55;98214.50;5073020;28;20492;-73
2022/05/05 07:07:25;;;;;;;32.90;29.60;;;14.80;89.90;;;14.40;77.43;98218.59;5079113;28;20466;-73
2022/05/05 07:12:43;;;;;;;32.83;28.13;;;15.30;86.30;;;14.12;76.65;98225.53;5031878;28;20514;-73
2022/05/05 07:15:12;;;;;;;30.90;27.27;;;15.30;86.10;;;13.84;77.47;98227.81;5079006;28;20454;-72
2022/05/05 07:17:39;;;;;;;29.47;26.47;;;15.00;86.50;;;13.70;79.03;98224.47;5085438;28;20485;-73
2022/05/05 07:20:08;;;;;;;27.40;24.60;;;14.80;87.50;;;13.53;79.85;98220.75;5089665;28;20454;-73
2022/05/05 07:22:35;;;;;;;28.93;25.83;;;14.70;88.10;;;13.43;80.14;98215.84;5078017;28;21013;-74
2022/05/05 07:25:03;;;;;;;31.23;25.50;;;14.60;88.50;;;13.40;80.63;98221.72;5085583;28;20448;-73
2022/05/05 07:27:30;;;;;;;30.13;26.40;;;14.60;88.80;;;13.83;78.81;98215.31;5083605;28;20562;-73
2022/05/05 07:29:57;;;;;;;28.90;25.80;;;14.80;88.80;;;13.83;79.31;98226.16;5074232;28;20453;-74
2022/05/05 07:32:26;;;;;;;30.20;24.67;;;14.80;88.40;;;14.27;76.80;98225.06;5075587;28;20450;-74
2022/05/05 07:34:53;;;;;;;29.30;25.23;;;15.20;87.60;;;13.94;78.06;98229.97;5080883;28;20486;-74
2022/05/05 07:37:20;;;;;;;29.83;26.70;;;15.20;86.80;;;14.25;77.26;98228.03;5075430;28;20458;-73
2022/05/05 07:39:47;;;;;;;28.70;25.63;;;15.30;86.70;;;14.82;74.59;98229.38;5081806;28;20466;-73
2022/05/05 07:42:14;;;;;;;36.67;27.93;;;15.70;85.60;;;15.28;72.97;98240.41;5079895;28;20554;-73
2022/05/05 07:44:41;;;;;;;28.43;25.43;;;16.20;84.70;;;15.48;72.00;98232.91;5080220;28;20480;-74
2022/05/05 07:47:09;;;;;;;28.77;25.77;;;16.50;83.90;;;15.07;72.90;98233.72;5084393;28;20561;-74
2022/05/05 07:49:37;;;;;;;24.47;21.97;;;16.30;83.70;;;15.08;73.22;98248.13;5078539;28;20441;-73
2022/05/05 07:52:05;;;;;;;25.50;22.73;;;16.20;83.80;;;16.02;69.25;98238.03;5073040;28;20964;-84
2022/05/05 07:54:38;;;;;;;26.60;23.90;;;16.70;83.10;;;16.00;69.02;98235.53;5075163;28;20804;-74
2022/05/05 07:57:07;;;;;;;25.43;22.87;;;16.90;82.20;;;16.45;67.66;98245.78;5072324;28;20542;-75
2022/05/05 07:59:35;;;;;;;23.63;21.23;;;17.20;81.40;;;16.74;65.89;98234.78;5066448;28;20675;-77
2022/05/05 08:02:03;;;;;;;23.10;20.80;;;17.60;80.40;;;16.98;65.28;98243.56;5072360;28;20458;-78
2022/05/05 08:04:30;;;;;;;24.10;21.60;;;17.90;80.20;;;16.62;66.16;98243.06;5081883;28;20459;-75
2022/05/05 08:07:01;;;;;;;24.90;22.20;;;17.80;79.40;;;16.17;68.73;98253.00;5081872;28;20470;-77
2022/05/05 08:09:28;;;;;;;22.53;20.33;;;17.40;80.10;;;15.93;69.05;98258.56;5075414;28;20444;-72
2022/05/05 08:11:55;;;;;;;23.03;20.63;;;17.20;80.40;;;16.01;67.62;98255.44;5072299;28;20490;-74
2022/05/05 08:14:22;;;;;;;21.50;19.40;;;17.10;80.20;;;16.20;67.66;98257.94;5078646;28;20537;-75
2022/05/05 08:16:50;;;;;;;21.27;19.07;;;17.20;80.10;;;16.35;66.95;98257.34;5079951;28;20466;-75
2022/05/05 08:19:17;;;;;;;21.67;19.57;;;17.30;79.80;;;16.50;65.39;98260.34;5079982;28;20451;-73
2022/05/05 08:21:44;;;;;;;21.50;19.50;;;17.40;79.00;;;16.16;66.86;98264.97;5079276;28;20443;-78
2022/05/05 08:29:42;;;;;;;21.77;19.60;;;17.20;79.60;;;16.66;66.02;98279.66;5088678;28;21031;-74
2022/05/05 08:32:10;;;;;;;23.03;20.77;;;17.50;79.40;;;15.71;69.66;98281.81;5081288;28;20926;-74
2022/05/05 08:34:37;;;;;;;21.50;19.47;;;17.20;79.80;;;16.20;67.95;98282.47;5075396;28;20569;-75
2022/05/05 08:37:05;;;;;;;21.50;19.50;;;17.20;80.10;;;16.02;67.16;98289.81;5075472;28;20482;-73
2022/05/05 08:39:34;;;;;;;20.63;18.77;;;17.20;79.00;;;15.38;68.98;98293.41;5079793;28;20926;-73
2022/05/05 08:42:00;;;;;;;21.23;19.23;;;16.90;79.10;;;15.11;69.85;98299.38;5078348;28;20935;-74
2022/05/05 08:44:28;;;;;;;20.13;18.13;;;16.50;79.50;;;16.49;66.00;98293.31;5086764;28;20474;-74
2022/05/05 08:46:57;;;;;;;21.50;19.20;;;17.10;79.50;;;17.20;63.48;98283.75;5078365;28;20518;-77
2022/05/05 08:49:24;;;;;;;20.27;18.37;;;17.80;78.50;;;17.91;61.34;98290.34;5093014;27;20523;-71
2022/05/05 08:51:54;;;;;;;22.70;19.90;;;18.50;77.50;;;16.53;64.87;98289.03;5081770;28;20450;-70
2022/05/05 08:54:25;;;;;;;21.93;19.83;;;18.10;76.60;;;17.68;61.78;98289.56;5076804;28;20507;-74
2022/05/05 08:56:54;;;;;;;20.40;18.30;;;18.40;76.90;;;18.40;59.22;98278.53;5074993;28;20451;-73
2022/05/05 08:59:23;;;;;;;20.47;18.47;;;19.00;75.80;;;18.57;57.00;98277.56;5084493;28;20942;-71
2022/05/05 09:01:52;;;;;;;18.93;17.03;;;19.40;73.30;;;18.08;58.74;98293.81;5074284;28;20451;-72
2022/05/05 09:04:20;;;;;;;18.27;16.40;;;19.40;73.30;;;18.06;59.83;98292.47;5075187;28;20448;-78
2022/05/05 09:06:50;;;;;;;18.20;16.50;;;19.10;73.70;;;18.38;57.15;98292.47;5080724;28;20452;-75
2022/05/05 09:09:28;;;;;;;18.00;16.30;;;19.40;72.00;;;18.75;55.88;98284.56;5074650;28;21180;-79
2022/05/05 09:12:14;;;;;;;17.13;15.53;;;19.60;71.20;;;19.28;54.63;98283.81;5078269;28;22781;-77
2022/05/05 09:14:45;;;;;;;17.47;15.77;;;20.00;70.40;;;19.20;54.58;98285.97;5077243;28;20494;-79
2022/05/05 09:17:15;;;;;;;17.73;15.87;;;20.20;69.80;;;18.81;55.43;98289.81;5087123;28;20487;-77
2022/05/05 09:19:45;;;;;;;16.93;15.43;;;19.90;69.60;;;18.86;55.28;98291.75;5078602;28;20531;-75
2022/05/05 09:22:14;;;;;;;16.37;14.67;;;19.90;69.40;;;18.95;54.81;98290.16;5078729;28;20943;-75
2022/05/05 09:24:46;;;;;;;16.17;14.83;;;19.80;69.10;;;18.04;57.47;98291.84;5077954;28;20538;-75
2022/05/05 09:27:21;;;;;;;14.47;13.13;;;19.50;69.50;;;18.33;55.70;98284.22;5075052;28;20965;-77
2022/05/05 09:30:10;;;;;;;15.20;13.70;;;19.30;68.90;;;18.36;55.37;98270.03;5082526;28;20551;-75
2022/05/05 09:32:40;;;;;;;13.80;12.53;;;19.50;68.80;;;18.39;56.84;98282.38;5085244;28;20457;-76
2022/05/05 09:35:12;;;;;;;16.63;15.13;;;19.30;69.80;;;17.65;57.97;98279.13;5072127;28;20479;-75
2022/05/05 09:37:45;;;;;;;14.93;13.73;;;19.00;69.80;;;17.57;58.17;98283.13;5079527;28;20552;-75
2022/05/05 09:40:17;;;;;;;17.23;15.60;;;18.50;69.80;;;17.88;57.49;98279.94;5075604;28;20450;-76
2022/05/05 09:42:48;;;;;;;15.50;14.20;;;18.90;70.00;;;18.43;56.05;98267.06;5080806;28;20471;-76
2022/05/05 09:45:21;;;;;;;15.20;13.80;;;19.30;69.70;;;18.52;56.37;98259.22;5078780;28;20446;-76
2022/05/05 09:47:51;;;;;;;14.20;12.90;;;19.40;69.70;;;18.80;56.55;98260.81;5084215;28;20555;-77
2022/05/05 09:50:21;;;;;;;15.63;14.33;;;19.60;69.80;;;18.94;54.73;98255.66;5074316;28;20455;-78
2022/05/05 09:58:26;;;;;;;14.97;13.57;;;19.70;68.50;;;18.55;55.32;98273.19;5080321;28;20549;-76
2022/05/05 10:01:05;;;;;;;15.97;14.47;;;19.60;68.20;;;18.63;54.93;98277.34;5089495;28;20534;-75
2022/05/05 10:06:30;;;;;;;15.53;13.90;;;19.50;68.30;;;18.26;55.77;98286.34;5095431;28;20958;-76
2022/05/05 10:09:02;;;;;;;13.33;12.20;;;19.40;67.90;;;18.41;55.83;98291.94;5079043;28;20474;-77
2022/05/05 10:11:31;;;;;;;14.17;12.77;;;19.30;68.30;;;19.09;52.87;98276.84;5072667;28;20926;-77
2022/05/05 10:14:00;;;;;;;14.40;13.10;;;19.80;66.60;;;18.85;55.32;98283.81;5079245;28;20472;-76
2022/05/05 10:16:30;;;;;;;14.20;13.03;;;19.80;67.80;;;19.09;56.54;98273.31;5077548;28;20455;-82
2022/05/05 10:18:57;;;;;;;16.20;14.70;;;20.00;69.40;;;19.11;55.57;98276.59;5077475;28;20461;-79
2022/05/05 10:21:38;;;;;;;14.20;12.90;;;20.10;68.80;;;18.96;57.10;98269.91;5076341;28;20491;-81
2022/05/05 10:24:15;;;;;;;15.07;13.50;;;20.00;69.80;;;18.84;57.47;98274.75;5078471;28;20459;-80
2022/05/05 10:26:49;;;;;;;14.27;12.90;;;19.90;69.80;;;19.11;56.34;98265.66;5079408;28;20485;-83
2022/05/05 10:29:37;;;;;;;12.63;11.53;;;20.00;69.40;;;19.00;55.46;98274.88;5079509;28;20584;-82
2022/05/05 10:32:11;;;;;;;13.83;12.67;;;20.00;68.20;;;18.81;55.57;98270.66;5074831;28;20451;-85
2022/05/05 10:34:39;;;;;;;12.90;11.70;;;19.90;67.90;;;18.86;55.41;98269.03;5073942;28;20494;-80
2022/05/05 10:37:08;;;;;;;12.00;11.10;;;19.90;68.00;;;19.08;55.00;98260.72;5077206;28;20448;-83
2022/05/05 10:39:50;;;;;;;11.70;10.70;;;20.00;68.30;;;19.17;53.98;98264.56;5078784;28;20460;-75
2022/05/05 10:42:20;;;;;;;9.60;8.80;;;20.20;67.30;;;19.18;54.34;98243.50;5095754;28;20461;-83
2022/05/05 10:45:31;;;;;;;10.53;9.53;;;20.20;67.30;;;19.39;53.41;98247.16;5078804;28;20774;-81